world map with TMP marked

TMP - Airport

This information may not be accurate or current and is not valid for navigation or flight planning. No warranty of fitness for any purpose is made or implied.

flag of Finland

Donate via PayPal

Additional information is available on the NEW Great Circle Mapper

Location
City:  Tampere, Pirkanmaa (Birkaland), Finland
Name:Pirkkala
ICAO / IATA:EFTP / TMP

Details
Type:Airport (Aerodrome, Airfield)
Latitude:61°24'55"N (61.415278)
Longitude:23°35'16"E (23.587778)
Elevation:390 ft (119 m)
Runways:1
Longest:8858 × 148 ft (2700 × 45 m)

Time
Timezone:UTC+2 (DST+5)
Local Time:

Weather
METAR:EFTP  191550Z AUTO 00000KT CAVOK M05/M06 Q1039
TAF:EFTP  191423Z 1915/2015 VRB02KT CAVOK PROB30 1921/1923 BKN010

Related Locations
Nearby:
Farthest:NZTB: 11101 mi / 17865 km
Terra Nova Bay [Mario Zucchelli Station], AQ

Find:

   beyond  
but within

Other Information
Maps:
Sources:

  


 


Great Circle Mapper   Great Circle Mapper
Great Circle Mapper FAQ   Great Circle Mapper FAQ
  Karl's Home Page
KLSē   KLSē Home
   GC on Facebook
Airlines of the World   Airlines of the World
Donate via PayPal


Copyright © 2004-2018, Karl L. Swartz. All rights reserved.
All trademarks mentioned herein belong to their respective owners.

Please see credits for attribution and copyright information.

Karl Swartz <karl@kls2.com>
  Powered by FreeBSD
Valid HTML 4.01!
Labeled with ICRA
hCard Microformat
Geo Microformat